createdAt,value
2023-03-29T00:07:37.900Z,84
2023-03-29T00:17:37.810Z,84.2
2023-03-29T00:27:37.789Z,84
2023-03-29T00:37:37.765Z,84
2023-03-29T00:47:37.738Z,84
2023-03-29T00:57:37.719Z,84
2023-03-29T01:07:37.771Z,83.8
2023-03-29T01:17:37.657Z,83.8
2023-03-29T01:27:37.637Z,83.8
2023-03-29T01:37:37.631Z,83.6
2023-03-29T01:47:37.596Z,83.8
2023-03-29T01:57:37.579Z,84
2023-03-29T02:07:37.526Z,83.4
2023-03-29T02:17:37.513Z,83.4
2023-03-29T02:27:37.473Z,83.4
2023-03-29T02:37:37.444Z,83
2023-03-29T02:47:37.424Z,82.6
2023-03-29T02:57:37.396Z,82
2023-03-29T03:07:37.369Z,81.6
2023-03-29T03:17:37.336Z,81
2023-03-29T03:27:37.306Z,80
2023-03-29T03:37:37.278Z,79.8
2023-03-29T03:47:37.258Z,79.8
2023-03-29T03:57:37.253Z,79.6
2023-03-29T04:07:37.194Z,79.8
2023-03-29T04:17:37.178Z,79.4
2023-03-29T04:27:37.149Z,78.8
2023-03-29T04:37:37.135Z,78.2
2023-03-29T04:47:37.094Z,78.6
2023-03-29T04:57:37.104Z,80
2023-03-29T05:07:37.045Z,81
2023-03-29T05:17:37.008Z,81
2023-03-29T05:27:36.977Z,80
2023-03-29T05:37:36.957Z,79.4
2023-03-29T05:47:36.929Z,79
2023-03-29T05:57:36.904Z,79.2
2023-03-29T06:07:36.870Z,79.6
2023-03-29T06:17:36.851Z,79.2
2023-03-29T06:27:36.830Z,77.2
2023-03-29T06:37:36.813Z,76.2
2023-03-29T06:47:36.773Z,76
2023-03-29T06:57:36.804Z,75.6
2023-03-29T07:07:36.700Z,75.4
2023-03-29T07:17:36.669Z,74.6
2023-03-29T07:27:36.669Z,73.4
2023-03-29T07:37:36.636Z,73.6
2023-03-29T07:47:36.621Z,73.6
2023-03-29T07:57:36.566Z,73.4
2023-03-29T08:07:36.550Z,73
2023-03-29T08:17:36.499Z,72.6
2023-03-29T08:27:36.639Z,72
2023-03-29T08:37:35.013Z,71.8
2023-03-29T08:47:34.979Z,71
2023-03-29T08:57:34.939Z,70.2
2023-03-29T09:07:34.913Z,70.4
2023-03-29T09:17:34.920Z,70.2
2023-03-29T09:27:34.867Z,70.6
2023-03-29T09:37:34.837Z,70.2
2023-03-29T09:47:34.785Z,70.2
2023-03-29T09:57:34.764Z,70.2
2023-03-29T10:07:34.728Z,70
2023-03-29T10:17:34.709Z,70
2023-03-29T10:27:34.687Z,70.2
2023-03-29T10:37:34.633Z,69.8
2023-03-29T10:47:34.609Z,69.8
2023-03-29T10:57:34.583Z,69
2023-03-29T11:07:34.548Z,67.4
2023-03-29T11:17:34.516Z,66.6
2023-03-29T11:27:34.485Z,65.8
2023-03-29T11:37:34.457Z,65.6
2023-03-29T11:47:34.431Z,64.6
2023-03-29T11:57:34.378Z,63.2
2023-03-29T12:07:34.354Z,63
2023-03-29T12:17:34.341Z,62.8
2023-03-29T12:27:34.300Z,62.4
2023-03-29T12:37:34.283Z,62.2
2023-03-29T12:47:34.255Z,62.8
2023-03-29T12:57:34.249Z,62.6
2023-03-29T13:07:34.155Z,61.8
2023-03-29T13:17:34.159Z,61.6
2023-03-29T13:27:34.113Z,61.2
2023-03-29T13:37:34.061Z,61.4
2023-03-29T13:47:34.058Z,61.4
2023-03-29T13:57:34.050Z,61.4
2023-03-29T14:07:33.980Z,60.8
2023-03-29T14:17:33.937Z,60.4
2023-03-29T14:27:33.906Z,60
2023-03-29T14:37:33.892Z,59.6
2023-03-29T14:47:33.849Z,59.6
2023-03-29T14:57:33.786Z,59.2
2023-03-29T15:07:33.765Z,58.8
2023-03-29T15:17:51.782Z,58.6
2023-03-29T15:27:33.728Z,59
2023-03-29T15:37:33.664Z,59.4
2023-03-29T15:47:33.634Z,59.6
2023-03-29T15:57:33.591Z,60
2023-03-29T16:07:33.590Z,60.2
2023-03-29T16:17:33.540Z,60.6
2023-03-29T16:27:33.504Z,61.2
2023-03-29T16:37:33.462Z,63.2
2023-03-29T16:47:33.426Z,64.2
2023-03-29T16:57:33.393Z,65
2023-03-29T17:07:33.382Z,66
2023-03-29T17:17:33.333Z,66.6
2023-03-29T17:27:33.306Z,67.8
2023-03-29T17:37:33.271Z,69.2
2023-03-29T17:47:33.240Z,70.6
2023-03-29T17:57:33.204Z,71.4
2023-03-29T18:07:33.165Z,72.2
2023-03-29T18:17:33.176Z,72.8
2023-03-29T18:27:33.109Z,73.4
2023-03-29T18:37:33.082Z,74
2023-03-29T18:47:33.059Z,74.4
2023-03-29T18:57:33.011Z,74.4
2023-03-29T19:07:32.984Z,74.8
2023-03-29T19:17:32.954Z,75.4
2023-03-29T19:27:32.927Z,75.6
2023-03-29T19:37:32.899Z,76.2
2023-03-29T19:47:32.869Z,76.6
2023-03-29T19:57:32.805Z,77
2023-03-29T20:07:32.788Z,77.6
2023-03-29T20:17:32.768Z,77.8
2023-03-29T20:27:32.733Z,78.2
2023-03-29T20:37:32.721Z,78.4
2023-03-29T20:47:32.655Z,78.2
2023-03-29T20:57:32.646Z,77.6
2023-03-29T21:07:32.591Z,77.2
2023-03-29T21:17:32.573Z,76.8
2023-03-29T21:27:32.567Z,76.4
2023-03-29T21:37:32.523Z,76.4
2023-03-29T21:47:32.463Z,76.2
2023-03-29T21:57:32.433Z,76.2
2023-03-29T22:07:32.412Z,75.4
2023-03-29T22:17:32.404Z,75.2
2023-03-29T22:27:32.345Z,75.2
2023-03-29T22:37:32.354Z,75.2
2023-03-29T22:47:32.308Z,75.8
2023-03-29T22:57:32.243Z,75.8
2023-03-29T23:07:32.222Z,75.2
2023-03-29T23:17:32.199Z,74.8
2023-03-29T23:27:32.154Z,74.4
2023-03-29T23:37:32.135Z,73.6
2023-03-29T23:47:32.088Z,72.4
2023-03-29T23:57:32.079Z,70.8
